AZU5093 SBVT-SBKP
Flight info
| Callsign | AZU5093 |
|---|---|
| Flight time | N/A |
| Altitude | 38000 |
| Route | USVAG DCT SIDUR DCT EDMUS |
| Aircraft | A20N/M-SDE2E3FGHIRWXY/LB1 |
Departure
| Time | 2026-05-07 13:03 |
|---|---|
| Airport | Eurico de Aguiar Salles International Airport (SBVT) |
Arrival
| Time | N/A |
|---|---|
| Airport | Viracopos International Airport (SBKP) |
| Time | Latitude | Longitude | Altitude | Speed | Heading |
|---|---|---|---|---|---|
| 2026-05-07 12:42 | -20.26573 | -40.28164 | 27 ft | 0 kts | 263° |
| 2026-05-07 12:54 | -20.26572 | -40.28164 | 27 ft | 1 kts | 263° |
| 2026-05-07 12:55 | -20.26572 | -40.28156 | 28 ft | 1 kts | 263° |
| 2026-05-07 12:55 | -20.26571 | -40.28148 | 28 ft | 1 kts | 263° |
| 2026-05-07 12:55 | -20.26570 | -40.28139 | 28 ft | 2 kts | 263° |
| 2026-05-07 12:55 | -20.26568 | -40.28125 | 28 ft | 2 kts | 263° |
| 2026-05-07 12:56 | -20.26566 | -40.28110 | 28 ft | 2 kts | 260° |
| 2026-05-07 12:56 | -20.26562 | -40.28096 | 28 ft | 2 kts | 217° |
| 2026-05-07 12:56 | -20.26550 | -40.28092 | 28 ft | 2 kts | 152° |
| 2026-05-07 12:56 | -20.26538 | -40.28097 | 28 ft | 1 kts | 171° |
| 2026-05-07 12:57 | -20.26537 | -40.28097 | 27 ft | 0 kts | 171° |
| 2026-05-07 12:59 | -20.26544 | -40.28096 | 27 ft | 3 kts | 172° |
| 2026-05-07 12:59 | -20.26569 | -40.28093 | 27 ft | 5 kts | 173° |
| 2026-05-07 12:59 | -20.26604 | -40.28088 | 27 ft | 5 kts | 173° |
| 2026-05-07 12:59 | -20.26615 | -40.28087 | 27 ft | 0 kts | 173° |
| 2026-05-07 13:01 | -20.26631 | -40.28075 | 27 ft | 4 kts | 123° |
| 2026-05-07 13:01 | -20.26627 | -40.28042 | 27 ft | 7 kts | 78° |
| 2026-05-07 13:01 | -20.26616 | -40.27992 | 27 ft | 6 kts | 77° |
| 2026-05-07 13:02 | -20.26607 | -40.27941 | 27 ft | 7 kts | 81° |
| 2026-05-07 13:02 | -20.26600 | -40.27897 | 27 ft | 5 kts | 81° |
| 2026-05-07 13:02 | -20.26592 | -40.27859 | 27 ft | 6 kts | 65° |
| 2026-05-07 13:02 | -20.26562 | -40.27850 | 27 ft | 2 kts | 351° |
| 2026-05-07 13:03 | -20.26551 | -40.27852 | 27 ft | 2 kts | 352° |
| 2026-05-07 13:03 | -20.26349 | -40.27882 | 27 ft | 81 kts | 352° |
| 2026-05-07 13:03 | -20.25421 | -40.28020 | 148 ft | 177 kts | 352° |
| 2026-05-07 13:03 | -20.24179 | -40.28057 | 1511 ft | 187 kts | 13° |
| 2026-05-07 13:04 | -20.22957 | -40.27417 | 2859 ft | 207 kts | 34° |
| 2026-05-07 13:04 | -20.21738 | -40.26481 | 4510 ft | 220 kts | 37° |
| 2026-05-07 13:04 | -20.20497 | -40.25518 | 6613 ft | 221 kts | 37° |
| 2026-05-07 13:04 | -20.19276 | -40.24519 | 8582 ft | 225 kts | 47° |
| 2026-05-07 13:05 | -20.18524 | -40.23045 | 10356 ft | 234 kts | 78° |
| 2026-05-07 13:05 | -20.18614 | -40.21250 | 11796 ft | 263 kts | 109° |
| 2026-05-07 13:05 | -20.19718 | -40.19605 | 13265 ft | 287 kts | 139° |
| 2026-05-07 13:05 | -20.21459 | -40.18485 | 14974 ft | 299 kts | 156° |
| 2026-05-07 13:06 | -20.23476 | -40.17811 | 16697 ft | 309 kts | 167° |
| 2026-05-07 13:06 | -20.25642 | -40.17531 | 18478 ft | 319 kts | 178° |
| 2026-05-07 13:06 | -20.27884 | -40.17699 | 20134 ft | 327 kts | 189° |
| 2026-05-07 13:06 | -20.30093 | -40.18373 | 22030 ft | 334 kts | 202° |
| 2026-05-07 13:07 | -20.32151 | -40.19576 | 24043 ft | 343 kts | 215° |
| 2026-05-07 13:07 | -20.33937 | -40.21299 | 25905 ft | 352 kts | 229° |
| 2026-05-07 13:07 | -20.35329 | -40.23484 | 27934 ft | 363 kts | 242° |
| 2026-05-07 13:07 | -20.36215 | -40.26057 | 30122 ft | 379 kts | 255° |
| 2026-05-07 13:08 | -20.36476 | -40.28898 | 32055 ft | 395 kts | 269° |
| 2026-05-07 13:08 | -20.36011 | -40.31846 | 33882 ft | 415 kts | 283° |
| 2026-05-07 13:08 | -20.34804 | -40.34721 | 35375 ft | 433 kts | 292° |
| 2026-05-07 13:08 | -20.33686 | -40.37704 | 36750 ft | 435 kts | 276° |
| 2026-05-07 13:09 | -20.33507 | -40.40865 | 37515 ft | 424 kts | 255° |
| 2026-05-07 13:09 | -20.34365 | -40.43795 | 37866 ft | 410 kts | 234° |
| 2026-05-07 13:09 | -20.36166 | -40.46089 | 38104 ft | 401 kts | 213° |
| 2026-05-07 13:09 | -20.38495 | -40.47712 | 38187 ft | 404 kts | 208° |
| 2026-05-07 13:10 | -20.40928 | -40.49310 | 38202 ft | 416 kts | 208° |
| 2026-05-07 13:10 | -20.43410 | -40.50935 | 38201 ft | 430 kts | 209° |
| 2026-05-07 13:10 | -20.45786 | -40.52963 | 38393 ft | 441 kts | 222° |
| 2026-05-07 13:10 | -20.47853 | -40.55291 | 39697 ft | 422 kts | 222° |
| 2026-05-07 13:11 | -20.49823 | -40.57527 | 40919 ft | 408 kts | 223° |
| 2026-05-07 13:11 | -20.51749 | -40.59720 | 42188 ft | 405 kts | 223° |
| 2026-05-07 13:11 | -20.53690 | -40.61927 | 43579 ft | 411 kts | 223° |
| 2026-05-07 13:11 | -20.55662 | -40.64164 | 45051 ft | 416 kts | 223° |
| 2026-05-07 13:12 | -20.57088 | -40.65780 | 45973 ft | 417 kts | 224° |